Monticello Municipal Ellis Field
KLLQ : now visible

Airfield :











YOU CAN JOIN US ON...

 
LOGIN :

Register | Disclaimer

   EN    FR    IT 

 









Legend :    VFR   Marginal VFR   IFR   Intensive IFR   Very Intensive IFR
Visi :
Ceiling :
>= 8 km
>= 3000ft
5 to 8 km
1000 to 3000 ft
1500m to 5 km
500 to 1000 ft
800 to 1500m
200 to 500 ft
< 800m
< 200 ft
Symbols :   Thunderstorms  Fog  Heavy snow  Heavy precipitations  Wind > 20 kt






- Airport Elevation : 270 ft


KLLQ - Monticello Municipal Ellis Field

CURRENT METAR :
  • 170343Z AUTO 00000KT 10SM SCT019 13/11 A3000 RMK AO2 T01280111

EXPIRED METARs :
  • 170253Z AUTO 13003KT 10SM OVC015 13/12 A3001 RMK AO2 SLP163 T01330117 50005
  • 170239Z AUTO 13003KT 10SM SCT006 OVC014 13/12 A3001 RMK AO2 T01330117
  • 170214Z AUTO 13004KT 7SM OVC006 13/12 A3001 RMK AO2 T01330117
  • 170153Z AUTO 14003KT 9SM OVC009 14/12 A3002 RMK AO2 CIG 006V012 SLP166 T01390117
  • 170110Z AUTO 13005KT 10SM OVC009 14/12 A3001 RMK AO2 CIG 007V012 T01390117
  • 170053Z AUTO VRB03KT 10SM OVC011 14/12 A3001 RMK AO2 SLP161 T01390117

TAF KLLQ
Valid from the 17 at 02:00 until the 18 at 00:00 UTC


170221Z 1702/1724 12005KT P6SM SCT005 OVC040
TEMPO 1702/1704 BKN005
FM170400 12003KT 4SM BR OVC005
FM170800 14005KT 3SM BR OVC007
FM171500 17008KT P6SM OVC010
FM172000 17009KT P6SM OVC015



MET'MAP, your aeronautical weather chart ! - Copyright ORBIFLY December 2007 - Disclaimer

ORBIFLY MET'MAP TEAM :

Programming & Development : Alexandra Zaïnal
Concept & original design : Baudouin d'Aumeries
Assistance for programming : Marc-Olivier Méhu
Technical & hardware support : Manuel Goepfert

Contact : metmap@orbifly.com




SOURCES & CREDITS :

   NOAA       Earth
Advisory